sensor_id;sensor_type;location;lat;lon;timestamp;P1;durP1;ratioP1;P2;durP2;ratioP2
52102;SDS011;38101;53.126;6.878;2024-01-16T16:26:37;5.45;;;2.97;;
52102;SDS011;38101;53.126;6.878;2024-01-16T16:29:07;8.02;;;3.08;;
52102;SDS011;38101;53.126;6.878;2024-01-16T16:31:34;4.57;;;2.75;;
52102;SDS011;38101;53.126;6.878;2024-01-16T16:34:02;6.80;;;3.03;;
52102;SDS011;38101;53.126;6.878;2024-01-16T16:36:30;6.28;;;2.75;;
52102;SDS011;38101;53.126;6.878;2024-01-16T16:38:56;5.50;;;2.83;;
52102;SDS011;38101;53.126;6.878;2024-01-16T16:41:22;5.95;;;2.60;;
52102;SDS011;38101;53.126;6.878;2024-01-16T16:43:49;6.55;;;3.70;;
52102;SDS011;38101;53.126;6.878;2024-01-16T16:46:15;5.15;;;2.97;;
52102;SDS011;38101;53.126;6.878;2024-01-16T16:48:48;6.20;;;3.15;;
52102;SDS011;38101;53.126;6.878;2024-01-16T16:51:17;6.95;;;3.85;;
52102;SDS011;38101;53.126;6.878;2024-01-16T16:53:47;8.75;;;3.58;;
52102;SDS011;38101;53.126;6.878;2024-01-16T16:56:13;7.28;;;3.15;;
52102;SDS011;38101;53.126;6.878;2024-01-16T16:58:48;8.23;;;4.28;;
52102;SDS011;38101;53.126;6.878;2024-01-16T17:01:15;8.55;;;3.40;;
52102;SDS011;38101;53.126;6.878;2024-01-16T17:03:43;6.15;;;3.63;;
52102;SDS011;38101;53.126;6.878;2024-01-16T17:06:14;6.78;;;3.17;;
52102;SDS011;38101;53.126;6.878;2024-01-16T17:08:40;6.38;;;3.28;;
52102;SDS011;38101;53.126;6.878;2024-01-16T17:11:06;4.13;;;2.80;;
52102;SDS011;38101;53.126;6.878;2024-01-16T17:13:35;8.75;;;3.40;;
52102;SDS011;38101;53.126;6.878;2024-01-16T17:16:02;7.85;;;3.35;;
52102;SDS011;38101;53.126;6.878;2024-01-16T17:18:29;6.82;;;3.90;;
52102;SDS011;38101;53.126;6.878;2024-01-16T17:20:58;5.50;;;3.50;;
52102;SDS011;38101;53.126;6.878;2024-01-16T17:23:24;13.10;;;3.65;;
52102;SDS011;38101;53.126;6.878;2024-01-16T17:25:51;6.93;;;3.15;;
52102;SDS011;38101;53.126;6.878;2024-01-16T17:28:18;5.70;;;3.10;;
52102;SDS011;38101;53.126;6.878;2024-01-16T17:30:48;6.30;;;3.10;;
52102;SDS011;38101;53.126;6.878;2024-01-16T17:33:14;6.97;;;3.38;;
52102;SDS011;38101;53.126;6.878;2024-01-16T17:35:40;7.72;;;4.03;;
52102;SDS011;38101;53.126;6.878;2024-01-16T17:38:06;8.85;;;4.70;;
52102;SDS011;38101;53.126;6.878;2024-01-16T17:40:31;7.10;;;3.45;;
52102;SDS011;38101;53.126;6.878;2024-01-16T17:42:57;8.52;;;4.20;;
52102;SDS011;38101;53.126;6.878;2024-01-16T17:45:23;6.45;;;3.25;;
52102;SDS011;38101;53.126;6.878;2024-01-16T17:47:48;6.20;;;3.40;;
52102;SDS011;38101;53.126;6.878;2024-01-16T17:50:14;5.03;;;2.85;;
52102;SDS011;38101;53.126;6.878;2024-01-16T17:52:40;4.53;;;2.65;;
52102;SDS011;38101;53.126;6.878;2024-01-16T17:55:05;4.80;;;2.75;;
52102;SDS011;38101;53.126;6.878;2024-01-16T17:57:31;5.07;;;3.67;;
52102;SDS011;38101;53.126;6.878;2024-01-16T17:59:57;7.53;;;3.50;;
52102;SDS011;38101;53.126;6.878;2024-01-16T18:02:23;9.18;;;3.55;;
52102;SDS011;38101;53.126;6.878;2024-01-16T18:04:48;7.93;;;3.63;;
52102;SDS011;38101;53.126;6.878;2024-01-16T18:07:16;4.57;;;2.80;;
52102;SDS011;38101;53.126;6.878;2024-01-16T18:09:42;6.03;;;3.22;;
52102;SDS011;38101;53.126;6.878;2024-01-16T18:12:08;8.00;;;4.15;;
52102;SDS011;38101;53.126;6.878;2024-01-16T18:14:36;7.22;;;4.00;;
52102;SDS011;38101;53.126;6.878;2024-01-16T18:17:07;6.72;;;4.15;;
52102;SDS011;38101;53.126;6.878;2024-01-16T18:19:34;8.02;;;4.57;;
52102;SDS011;38101;53.126;6.878;2024-01-16T18:22:01;7.22;;;4.70;;
52102;SDS011;38101;53.126;6.878;2024-01-16T18:24:32;7.20;;;4.78;;
52102;SDS011;38101;53.126;6.878;2024-01-16T18:26:58;9.80;;;5.38;;
52102;SDS011;38101;53.126;6.878;2024-01-16T18:29:24;10.90;;;5.85;;
52102;SDS011;38101;53.126;6.878;2024-01-16T18:31:50;7.00;;;5.35;;
52102;SDS011;38101;53.126;6.878;2024-01-16T18:34:16;12.32;;;5.97;;
52102;SDS011;38101;53.126;6.878;2024-01-16T18:36:48;8.82;;;5.78;;
52102;SDS011;38101;53.126;6.878;2024-01-16T18:39:17;6.88;;;5.00;;
52102;SDS011;38101;53.126;6.878;2024-01-16T18:41:48;8.68;;;5.07;;
52102;SDS011;38101;53.126;6.878;2024-01-16T18:44:14;9.90;;;6.53;;
52102;SDS011;38101;53.126;6.878;2024-01-16T18:46:44;9.77;;;5.65;;
52102;SDS011;38101;53.126;6.878;2024-01-16T18:49:10;9.32;;;5.30;;
